Time,TemperatureF,DewpointF,PressureIn,WindDirection,WindDirectionDegrees,WindSpeedMPH,WindSpeedGustMPH,Humidity,HourlyPrecipIn,Conditions,Clouds,dailyrainin,SoftwareType,DateUTC
2013-10-07 00:07:00,57.7,47.6,29.92,SSW,202,0.0,-999.0,69,-99.99,,,0.00,Acu-Link.com,2013-10-07 07:07:00,
2013-10-07 00:22:00,57.2,47.5,29.91,West,270,0.0,-999.0,70,-99.99,,,0.00,Acu-Link.com,2013-10-07 07:22:00,
2013-10-07 00:39:00,57.0,47.3,29.91,ENE,67,0.0,-999.0,70,-99.99,,,0.00,Acu-Link.com,2013-10-07 07:39:00,
2013-10-07 00:54:00,57.0,47.3,29.91,West,270,0.0,-999.0,70,-99.99,,,0.00,Acu-Link.com,2013-10-07 07:54:00,
2013-10-07 01:10:00,56.8,47.1,29.91,West,270,0.0,-999.0,70,-99.99,,,0.00,Acu-Link.com,2013-10-07 08:10:00,
2013-10-07 01:25:00,56.7,47.0,29.91,NE,45,0.0,-999.0,70,-99.99,,,0.00,Acu-Link.com,2013-10-07 08:25:00,
2013-10-07 01:40:00,56.1,46.5,29.91,ESE,112,0.0,-999.0,70,-99.99,,,0.00,Acu-Link.com,2013-10-07 08:40:00,
2013-10-07 01:57:00,55.8,46.2,29.91,ESE,112,0.0,-999.0,70,-99.99,,,0.00,Acu-Link.com,2013-10-07 08:57:00,
2013-10-07 02:12:00,55.0,45.4,29.91,West,270,0.0,-999.0,70,-99.99,,,0.00,Acu-Link.com,2013-10-07 09:12:00,
2013-10-07 02:27:00,54.3,44.3,29.91,ESE,112,0.0,-999.0,69,-99.99,,,0.00,Acu-Link.com,2013-10-07 09:27:00,
2013-10-07 02:42:00,52.7,42.8,29.90,West,270,0.0,-999.0,69,-99.99,,,0.00,Acu-Link.com,2013-10-07 09:42:00,
2013-10-07 02:58:00,52.9,43.8,29.89,East,90,0.0,-999.0,71,-99.99,,,0.00,Acu-Link.com,2013-10-07 09:58:00,
2013-10-07 03:13:00,53.1,43.9,29.90,WNW,292,0.0,-999.0,71,-99.99,,,0.00,Acu-Link.com,2013-10-07 10:13:00,
2013-10-07 03:28:00,53.1,43.9,29.89,NNE,22,0.0,-999.0,71,-99.99,,,0.00,Acu-Link.com,2013-10-07 10:28:00,
2013-10-07 03:43:00,52.3,42.8,29.89,ESE,112,0.0,-999.0,70,-99.99,,,0.00,Acu-Link.com,2013-10-07 10:43:00,
2013-10-07 03:58:00,51.3,41.5,29.89,ESE,112,0.0,-999.0,69,-99.99,,,0.00,Acu-Link.com,2013-10-07 10:58:00,
2013-10-07 04:14:00,50.7,40.9,29.88,East,90,0.0,-999.0,69,-99.99,,,0.00,Acu-Link.com,2013-10-07 11:14:00,
2013-10-07 04:29:00,50.2,38.9,29.89,WNW,292,0.0,-999.0,65,-99.99,,,0.00,Acu-Link.com,2013-10-07 11:29:00,
2013-10-07 04:44:00,49.6,36.7,29.89,NNW,337,0.0,-999.0,61,-99.99,,,0.00,Acu-Link.com,2013-10-07 11:44:00,
2013-10-07 05:00:00,49.1,34.1,29.89,NW,315,0.0,-999.0,56,-99.99,,,0.00,Acu-Link.com,2013-10-07 12:00:00,
2013-10-07 05:15:00,48.9,28.5,29.89,West,270,0.0,-999.0,45,-99.99,,,0.00,Acu-Link.com,2013-10-07 12:15:00,
2013-10-07 05:30:00,48.6,29.8,29.89,SW,225,0.0,-999.0,48,-99.99,,,0.00,Acu-Link.com,2013-10-07 12:30:00,
2013-10-07 05:46:00,48.2,26.8,29.90,ESE,112,0.0,-999.0,43,-99.99,,,0.00,Acu-Link.com,2013-10-07 12:46:00,
2013-10-07 06:01:00,47.8,17.9,29.90,WNW,292,0.0,-999.0,30,-99.99,,,0.00,Acu-Link.com,2013-10-07 13:01:00,
2013-10-07 06:16:00,47.3,21.7,29.90,West,270,0.0,-999.0,36,-99.99,,,0.00,Acu-Link.com,2013-10-07 13:16:00,
2013-10-07 06:31:00,47.1,13.1,29.90,SSW,202,0.0,-999.0,25,-99.99,,,0.00,Acu-Link.com,2013-10-07 13:31:00,
2013-10-07 06:47:00,46.9,10.1,29.89,NW,315,0.0,-999.0,22,-99.99,,,0.00,Acu-Link.com,2013-10-07 13:47:00,
2013-10-07 07:02:00,46.9,-4.8,29.90,West,270,0.0,-999.0,11,-99.99,,,0.00,Acu-Link.com,2013-10-07 14:02:00,
2013-10-07 07:17:00,46.6,0.0,29.90,SSW,202,0.0,-999.0,14,-99.99,,,0.00,Acu-Link.com,2013-10-07 14:17:00,
2013-10-07 07:33:00,46.6,-3.2,29.90,SE,135,0.0,-999.0,12,-99.99,,,0.00,Acu-Link.com,2013-10-07 14:33:00,
2013-10-07 07:48:00,48.7,8.3,29.91,ESE,112,0.0,-999.0,19,-99.99,,,0.00,Acu-Link.com,2013-10-07 14:48:00,
2013-10-07 08:03:00,52.7,43.2,29.91,WNW,292,2.2,-999.0,70,-99.99,,,0.00,Acu-Link.com,2013-10-07 15:03:00,
2013-10-07 08:18:00,54.9,44.9,29.92,NNW,337,2.7,-999.0,69,-99.99,,,0.00,Acu-Link.com,2013-10-07 15:18:00,
2013-10-07 08:34:00,57.9,45.4,29.92,WNW,292,2.7,-999.0,63,-99.99,,,0.00,Acu-Link.com,2013-10-07 15:34:00,
2013-10-07 08:49:00,61.2,45.4,29.93,WNW,292,2.2,-999.0,56,-99.99,,,0.00,Acu-Link.com,2013-10-07 15:49:00,
2013-10-07 09:04:00,64.6,46.6,29.92,WNW,292,0.0,-999.0,52,-99.99,,,0.00,Acu-Link.com,2013-10-07 16:04:00,
2013-10-07 09:19:00,63.5,44.5,29.93,West,270,3.2,-999.0,50,-99.99,,,0.00,Acu-Link.com,2013-10-07 16:19:00,
2013-10-07 09:34:00,65.1,43.8,29.93,NNW,337,3.2,-999.0,46,-99.99,,,0.00,Acu-Link.com,2013-10-07 16:34:00,
2013-10-07 09:50:00,66.9,43.7,29.92,SW,225,1.7,-999.0,43,-99.99,,,0.00,Acu-Link.com,2013-10-07 16:50:00,
2013-10-07 10:05:00,68.9,42.9,29.92,North,0,5.3,-999.0,39,-99.99,,,0.00,Acu-Link.com,2013-10-07 17:05:00,
2013-10-07 10:20:00,70.7,42.4,29.92,WNW,292,2.2,-999.0,36,-99.99,,,0.00,Acu-Link.com,2013-10-07 17:20:00,
2013-10-07 10:35:00,72.3,39.1,29.92,West,270,2.7,-999.0,30,-99.99,,,0.00,Acu-Link.com,2013-10-07 17:35:00,
2013-10-07 10:51:00,73.9,38.7,29.91,NW,315,4.2,-999.0,28,-99.99,,,0.00,Acu-Link.com,2013-10-07 17:51:00,
2013-10-07 11:06:00,76.1,39.7,29.91,North,0,2.7,-999.0,27,-99.99,,,0.00,Acu-Link.com,2013-10-07 18:06:00,
2013-10-07 11:21:00,77.5,37.9,29.90,NW,315,1.7,-999.0,24,-99.99,,,0.00,Acu-Link.com,2013-10-07 18:21:00,
2013-10-07 11:36:00,79.0,38.0,29.89,NNE,22,3.7,-999.0,23,-99.99,,,0.00,Acu-Link.com,2013-10-07 18:36:00,
2013-10-07 11:51:00,79.7,38.6,29.89,WNW,292,2.7,-999.0,23,-99.99,,,0.00,Acu-Link.com,2013-10-07 18:51:00,
2013-10-07 12:06:00,80.2,35.5,29.88,NW,315,2.2,-999.0,20,-99.99,,,0.00,Acu-Link.com,2013-10-07 19:06:00,
2013-10-07 12:22:00,81.3,35.1,29.88,WSW,247,0.0,-999.0,19,-99.99,,,0.00,Acu-Link.com,2013-10-07 19:22:00,
2013-10-07 12:37:00,82.2,33.0,29.87,WNW,292,2.2,-999.0,17,-99.99,,,0.00,Acu-Link.com,2013-10-07 19:37:00,
2013-10-07 12:52:00,83.3,33.9,29.86,NW,315,5.3,-999.0,17,-99.99,,,0.00,Acu-Link.com,2013-10-07 19:52:00,
2013-10-07 13:07:00,83.5,34.1,29.86,West,270,2.2,-999.0,17,-99.99,,,0.00,Acu-Link.com,2013-10-07 20:07:00,
2013-10-07 13:22:00,84.4,33.3,29.85,WNW,292,4.2,-999.0,16,-99.99,,,0.00,Acu-Link.com,2013-10-07 20:22:00,
2013-10-07 13:37:00,85.5,34.2,29.84,West,270,2.7,-999.0,16,-99.99,,,0.00,Acu-Link.com,2013-10-07 20:37:00,
2013-10-07 13:52:00,86.4,34.9,29.83,West,270,4.2,-999.0,16,-99.99,,,0.00,Acu-Link.com,2013-10-07 20:52:00,
2013-10-07 14:08:00,85.3,32.4,29.83,North,0,1.7,-999.0,15,-99.99,,,0.00,Acu-Link.com,2013-10-07 21:08:00,
2013-10-07 14:23:00,86.0,36.1,29.82,WNW,292,4.2,-999.0,17,-99.99,,,0.00,Acu-Link.com,2013-10-07 21:23:00,
2013-10-07 14:38:00,86.7,31.8,29.82,NNE,22,1.7,-999.0,14,-99.99,,,0.00,Acu-Link.com,2013-10-07 21:38:00,
2013-10-07 14:53:00,86.2,29.6,29.81,West,270,3.2,-999.0,13,-99.99,,,0.00,Acu-Link.com,2013-10-07 21:53:00,
2013-10-07 15:08:00,86.7,31.8,29.80,ESE,112,2.7,-999.0,14,-99.99,,,0.00,Acu-Link.com,2013-10-07 22:08:00,
2013-10-07 15:23:00,87.4,30.5,29.80,SSE,157,0.0,-999.0,13,-99.99,,,0.00,Acu-Link.com,2013-10-07 22:23:00,
2013-10-07 15:38:00,87.3,30.4,29.80,SW,225,1.1,-999.0,13,-99.99,,,0.00,Acu-Link.com,2013-10-07 22:38:00,
2013-10-07 15:53:00,87.8,28.9,29.79,West,270,2.7,-999.0,12,-99.99,,,0.00,Acu-Link.com,2013-10-07 22:53:00,
2013-10-07 16:09:00,85.6,30.9,29.78,WNW,292,0.0,-999.0,14,-99.99,,,0.00,Acu-Link.com,2013-10-07 23:09:00,
2013-10-07 16:24:00,85.5,35.7,29.78,SSW,202,1.1,-999.0,17,-99.99,,,0.00,Acu-Link.com,2013-10-07 23:24:00,
2013-10-07 16:39:00,86.0,36.1,29.78,SW,225,0.0,-999.0,17,-99.99,,,0.00,Acu-Link.com,2013-10-07 23:39:00,
2013-10-07 16:54:00,85.6,35.8,29.77,SSE,157,3.2,-999.0,17,-99.99,,,0.00,Acu-Link.com,2013-10-07 23:54:00,
2013-10-07 17:09:00,83.7,37.0,29.77,South,180,2.2,-999.0,19,-99.99,,,0.00,Acu-Link.com,2013-10-08 00:09:00,
2013-10-07 17:24:00,82.8,40.0,29.76,SW,225,1.1,-999.0,22,-99.99,,,0.00,Acu-Link.com,2013-10-08 00:24:00,
2013-10-07 17:40:00,83.1,37.9,29.76,South,180,1.7,-999.0,20,-99.99,,,0.00,Acu-Link.com,2013-10-08 00:40:00,
2013-10-07 17:55:00,82.2,42.9,29.75,South,180,0.0,-999.0,25,-99.99,,,0.00,Acu-Link.com,2013-10-08 00:55:00,
2013-10-07 18:10:00,80.4,44.3,29.76,ESE,112,0.0,-999.0,28,-99.99,,,0.00,Acu-Link.com,2013-10-08 01:10:00,
2013-10-07 18:25:00,77.7,46.3,29.75,NNE,22,0.0,-999.0,33,-99.99,,,0.00,Acu-Link.com,2013-10-08 01:25:00,
2013-10-07 18:41:00,75.2,47.1,29.75,South,180,0.0,-999.0,37,-99.99,,,0.00,Acu-Link.com,2013-10-08 01:41:00,
2013-10-07 18:56:00,72.3,47.9,29.75,SE,135,0.0,-999.0,42,-99.99,,,0.00,Acu-Link.com,2013-10-08 01:56:00,
2013-10-07 19:11:00,72.1,45.1,29.75,South,180,0.0,-999.0,38,-99.99,,,0.00,Acu-Link.com,2013-10-08 02:11:00,
2013-10-07 19:26:00,71.6,41.7,29.75,SSW,202,2.2,-999.0,34,-99.99,,,0.00,Acu-Link.com,2013-10-08 02:26:00,
2013-10-07 19:42:00,71.1,38.9,29.75,SSW,202,1.1,-999.0,31,-99.99,,,0.00,Acu-Link.com,2013-10-08 02:42:00,
2013-10-07 19:57:00,70.3,39.8,29.75,East,90,0.0,-999.0,33,-99.99,,,0.00,Acu-Link.com,2013-10-08 02:57:00,
2013-10-07 20:12:00,69.1,40.3,29.76,South,180,1.7,-999.0,35,-99.99,,,0.00,Acu-Link.com,2013-10-08 03:12:00,
2013-10-07 20:28:00,68.0,41.4,29.76,South,180,2.2,-999.0,38,-99.99,,,0.00,Acu-Link.com,2013-10-08 03:28:00,
2013-10-07 20:43:00,67.5,42.3,29.76,SSW,202,0.0,-999.0,40,-99.99,,,0.00,Acu-Link.com,2013-10-08 03:43:00,
2013-10-07 20:58:00,66.6,42.2,29.76,South,180,0.0,-999.0,41,-99.99,,,0.00,Acu-Link.com,2013-10-08 03:58:00,
2013-10-07 21:13:00,65.8,42.1,29.76,South,180,1.1,-999.0,42,-99.99,,,0.00,Acu-Link.com,2013-10-08 04:13:00,
2013-10-07 21:28:00,64.0,42.8,29.77,SSE,157,0.0,-999.0,46,-99.99,,,0.00,Acu-Link.com,2013-10-08 04:28:00,
2013-10-07 21:44:00,63.0,41.9,29.76,NE,45,0.0,-999.0,46,-99.99,,,0.00,Acu-Link.com,2013-10-08 04:44:00,
2013-10-07 21:59:00,62.2,41.7,29.77,NNE,22,0.0,-999.0,47,-99.99,,,0.00,Acu-Link.com,2013-10-08 04:59:00,
2013-10-07 22:15:00,61.0,42.2,29.77,East,90,0.0,-999.0,50,-99.99,,,0.00,Acu-Link.com,2013-10-08 05:15:00,
2013-10-07 22:30:00,61.2,42.4,29.77,SE,135,1.7,-999.0,50,-99.99,,,0.00,Acu-Link.com,2013-10-08 05:30:00,
2013-10-07 22:45:00,59.9,42.2,29.77,SSW,202,0.0,-999.0,52,-99.99,,,0.00,Acu-Link.com,2013-10-08 05:45:00,
2013-10-07 23:00:00,58.6,42.5,29.77,West,270,0.0,-999.0,55,-99.99,,,0.00,Acu-Link.com,2013-10-08 06:00:00,
2013-10-07 23:18:00,57.9,43.2,29.77,ESE,112,0.0,-999.0,58,-99.99,,,0.00,Acu-Link.com,2013-10-08 06:18:00,
2013-10-07 23:33:00,57.2,43.4,29.77,NNW,337,0.0,-999.0,60,-99.99,,,0.00,Acu-Link.com,2013-10-08 06:33:00,
2013-10-07 23:48:00,56.3,43.4,29.77,SSE,157,0.0,-999.0,62,-99.99,,,0.00,Acu-Link.com,2013-10-08 06:48:00,